Time,TemperatureF,DewpointF,PressureIn,WindDirection,WindDirectionDegrees,WindSpeedMPH,WindSpeedGustMPH,Humidity,HourlyPrecipIn,Conditions,Clouds,dailyrainin,SoftwareType,DateUTC
2013-11-13 00:01:00,29.6,20.0,30.44,SSW,207,1.0,1.0,67,0.00,,,0.00,Wunderground v.1.15,2013-11-13 05:01:00,
2013-11-13 00:03:00,29.6,20.0,30.44,North,355,2.0,5.0,68,0.00,,,0.00,weatherlink.com 1.10,2013-11-13 05:03:00,
2013-11-13 00:04:00,29.5,19.9,30.44,North,349,1.0,1.0,67,0.00,,,0.00,Wunderground v.1.15,2013-11-13 05:04:00,
2013-11-13 00:11:00,29.6,20.3,30.44,SSE,164,3.0,3.0,68,0.00,,,0.00,Wunderground v.1.15,2013-11-13 05:11:00,
2013-11-13 00:14:00,29.5,19.9,30.44,SSE,151,0.0,3.0,67,0.00,,,0.00,Wunderground v.1.15,2013-11-13 05:14:00,
2013-11-13 00:20:00,29.3,20.0,30.44,SSE,156,1.0,3.0,68,0.00,,,0.00,weatherlink.com 1.10,2013-11-13 05:20:00,
2013-11-13 00:25:00,29.0,19.8,30.44,SSE,156,0.0,1.0,68,0.00,,,0.00,Wunderground v.1.15,2013-11-13 05:25:00,
2013-11-13 00:31:00,28.7,19.8,30.44,SSE,156,0.0,1.0,69,0.00,,,0.00,Wunderground v.1.15,2013-11-13 05:31:00,
2013-11-13 00:36:00,28.7,19.8,30.44,SSE,156,1.0,1.0,69,0.00,,,0.00,Wunderground v.1.15,2013-11-13 05:36:00,
2013-11-13 00:49:00,28.9,20.0,30.45,NW,325,0.0,3.0,68,0.00,,,0.00,weatherlink.com 1.10,2013-11-13 05:49:00,
2013-11-13 01:04:00,28.7,19.0,30.44,ESE,115,1.0,3.0,67,0.00,,,0.00,weatherlink.com 1.10,2013-11-13 06:04:00,
2013-11-13 01:19:00,28.7,19.0,30.44,West,279,0.0,2.0,68,0.00,,,0.00,weatherlink.com 1.10,2013-11-13 06:19:00,
2013-11-13 01:34:00,28.2,20.0,30.44,West,269,0.0,2.0,72,0.00,,,0.00,weatherlink.com 1.10,2013-11-13 06:34:00,
2013-11-13 01:49:00,28.1,20.0,30.44,SSW,202,0.0,2.0,73,0.00,,,0.00,weatherlink.com 1.10,2013-11-13 06:49:00,
2013-11-13 02:04:00,28.0,20.0,30.44,SSW,198,1.0,2.0,72,0.00,,,0.00,weatherlink.com 1.10,2013-11-13 07:04:00,
2013-11-13 02:19:00,28.1,20.0,30.44,SE,140,1.0,3.0,73,0.00,,,0.00,weatherlink.com 1.10,2013-11-13 07:19:00,
2013-11-13 02:34:00,28.7,21.0,30.44,SSW,194,1.0,4.0,73,0.00,,,0.00,weatherlink.com 1.10,2013-11-13 07:34:00,
2013-11-13 02:49:00,29.0,21.0,30.44,West,275,1.0,3.0,73,0.00,,,0.00,weatherlink.com 1.10,2013-11-13 07:49:00,
2013-11-13 03:04:00,28.8,21.0,30.44,SSE,156,1.0,4.0,72,0.00,,,0.00,weatherlink.com 1.10,2013-11-13 08:04:00,
2013-11-13 03:19:00,29.1,21.0,30.43,East,101,0.0,3.0,71,0.00,,,0.00,weatherlink.com 1.10,2013-11-13 08:19:00,
2013-11-13 03:34:00,29.2,21.0,30.44,East,86,2.0,2.0,70,0.00,,,0.00,weatherlink.com 1.10,2013-11-13 08:34:00,
2013-11-13 03:49:00,29.3,20.0,30.44,South,186,0.0,2.0,69,0.00,,,0.00,weatherlink.com 1.10,2013-11-13 08:49:00,
2013-11-13 04:04:00,29.2,21.0,30.45,South,182,0.0,2.0,70,0.00,,,0.00,weatherlink.com 1.10,2013-11-13 09:04:00,
2013-11-13 04:19:00,28.7,20.0,30.45,WSW,256,1.0,4.0,70,0.00,,,0.00,weatherlink.com 1.10,2013-11-13 09:19:00,
2013-11-13 04:34:00,28.7,20.0,30.46,South,176,1.0,2.0,70,0.00,,,0.00,weatherlink.com 1.10,2013-11-13 09:34:00,
2013-11-13 04:49:00,28.7,20.0,30.47,SSW,196,0.0,3.0,70,0.00,,,0.00,weatherlink.com 1.10,2013-11-13 09:49:00,
2013-11-13 05:04:00,28.9,20.0,30.47,SSE,148,1.0,4.0,69,0.00,,,0.00,weatherlink.com 1.10,2013-11-13 10:04:00,
2013-11-13 05:19:00,28.6,20.0,30.48,South,186,2.0,3.0,70,0.00,,,0.00,weatherlink.com 1.10,2013-11-13 10:19:00,
2013-11-13 05:34:00,28.9,19.0,30.48,SE,134,0.0,3.0,67,0.00,,,0.00,weatherlink.com 1.10,2013-11-13 10:34:00,
2013-11-13 05:49:00,28.7,18.0,30.49,NNE,25,0.0,7.0,65,0.00,,,0.00,weatherlink.com 1.10,2013-11-13 10:49:00,
2013-11-13 06:04:00,28.9,18.0,30.49,West,275,1.0,3.0,63,0.00,,,0.00,weatherlink.com 1.10,2013-11-13 11:04:00,
2013-11-13 06:20:00,28.7,17.0,30.49,NNE,22,1.0,4.0,63,0.00,,,0.00,weatherlink.com 1.10,2013-11-13 11:20:00,
2013-11-13 06:35:00,28.6,17.0,30.49,WSW,242,0.0,3.0,63,0.00,,,0.00,weatherlink.com 1.10,2013-11-13 11:35:00,
2013-11-13 06:50:00,28.3,18.0,30.49,WNW,297,0.0,3.0,65,0.00,,,0.00,weatherlink.com 1.10,2013-11-13 11:50:00,
2013-11-13 07:05:00,28.2,18.0,30.49,NNW,337,0.0,2.0,65,0.00,,,0.00,weatherlink.com 1.10,2013-11-13 12:05:00,
2013-11-13 07:20:00,28.2,18.0,30.50,West,261,0.0,1.0,65,0.00,,,0.00,weatherlink.com 1.10,2013-11-13 12:20:00,
2013-11-13 07:35:00,28.2,18.0,30.50,South,187,0.0,2.0,66,0.00,,,0.00,weatherlink.com 1.10,2013-11-13 12:35:00,
2013-11-13 07:50:00,28.8,18.0,30.51,SW,223,1.0,2.0,65,0.00,,,0.00,weatherlink.com 1.10,2013-11-13 12:50:00,
2013-11-13 07:59:00,29.1,18.8,30.52,East,97,1.0,1.0,65,0.00,,,0.00,Wunderground v.1.15,2013-11-13 12:59:00,
2013-11-13 08:06:00,29.2,18.5,30.52,ESE,107,0.0,3.0,64,0.00,,,0.00,Wunderground v.1.15,2013-11-13 13:06:00,
2013-11-13 08:18:00,29.2,18.2,30.52,ENE,57,1.0,3.0,63,0.00,,,0.00,Wunderground v.1.15,2013-11-13 13:18:00,
2013-11-13 08:29:00,29.5,18.1,30.52,WNW,284,2.0,4.0,62,0.00,,,0.00,Wunderground v.1.15,2013-11-13 13:29:00,
2013-11-13 08:36:00,29.5,18.1,30.52,NNW,341,2.0,2.0,62,0.00,,,0.00,Wunderground v.1.15,2013-11-13 13:36:00,
2013-11-13 08:41:00,29.5,18.1,30.53,NE,44,2.0,2.0,62,0.00,,,0.00,Wunderground v.1.15,2013-11-13 13:41:00,
2013-11-13 08:46:00,29.5,18.1,30.52,SSE,162,2.0,4.0,62,0.00,,,0.00,Wunderground v.1.15,2013-11-13 13:46:00,
2013-11-13 08:54:00,29.9,18.5,30.53,North,360,4.0,4.0,62,0.00,,,0.00,Wunderground v.1.15,2013-11-13 13:54:00,
2013-11-13 09:00:00,30.3,18.5,30.53,North,5,2.0,2.0,61,0.00,,,0.00,Wunderground v.1.15,2013-11-13 14:00:00,
2013-11-13 09:06:00,30.4,17.8,30.52,NE,36,4.0,4.0,59,0.00,,,0.00,Wunderground v.1.15,2013-11-13 14:06:00,
2013-11-13 09:13:00,30.7,18.1,30.52,North,5,3.0,3.0,59,0.00,,,0.00,Wunderground v.1.15,2013-11-13 14:13:00,
2013-11-13 09:18:00,30.9,18.2,30.52,ENE,66,4.0,8.0,59,0.00,,,0.00,Wunderground v.1.15,2013-11-13 14:18:00,
2013-11-13 09:23:00,31.3,18.6,30.52,NNE,29,1.0,3.0,59,0.00,,,0.00,Wunderground v.1.15,2013-11-13 14:23:00,
2013-11-13 09:28:00,31.5,18.4,30.52,ENE,61,2.0,3.0,58,0.00,,,0.00,Wunderground v.1.15,2013-11-13 14:28:00,
2013-11-13 09:33:00,31.7,18.6,30.52,NNE,21,3.0,3.0,58,0.00,,,0.00,Wunderground v.1.15,2013-11-13 14:33:00,
2013-11-13 09:38:00,31.7,17.8,30.52,WSW,255,2.0,7.0,56,0.00,,,0.00,Wunderground v.1.15,2013-11-13 14:38:00,
2013-11-13 09:43:00,31.7,18.2,30.52,South,183,1.0,3.0,57,0.00,,,0.00,Wunderground v.1.15,2013-11-13 14:43:00,
2013-11-13 09:48:00,32.3,18.3,30.52,WNW,292,2.0,3.0,56,0.00,,,0.00,Wunderground v.1.15,2013-11-13 14:48:00,
2013-11-13 09:53:00,32.4,18.4,30.52,SSW,209,1.0,3.0,56,0.00,,,0.00,Wunderground v.1.15,2013-11-13 14:53:00,
2013-11-13 09:58:00,32.9,18.9,30.53,WSW,252,3.0,3.0,56,0.00,,,0.00,Wunderground v.1.15,2013-11-13 14:58:00,
2013-11-13 10:03:00,32.6,18.2,30.52,SW,234,1.0,8.0,55,0.00,,,0.00,Wunderground v.1.15,2013-11-13 15:03:00,
2013-11-13 10:09:00,33.1,18.2,30.53,North,355,5.0,8.0,54,0.00,,,0.00,Wunderground v.1.15,2013-11-13 15:09:00,
2013-11-13 10:14:00,32.9,18.1,30.52,NW,319,4.0,5.0,54,0.00,,,0.00,Wunderground v.1.15,2013-11-13 15:14:00,
2013-11-13 10:19:00,33.1,17.8,30.52,NE,35,2.0,7.0,53,0.00,,,0.00,Wunderground v.1.15,2013-11-13 15:19:00,
2013-11-13 10:24:00,34.2,18.8,30.52,North,349,3.0,3.0,53,0.00,,,0.00,Wunderground v.1.15,2013-11-13 15:24:00,
2013-11-13 10:29:00,34.1,18.3,30.52,North,5,3.0,5.0,52,0.00,,,0.00,Wunderground v.1.15,2013-11-13 15:29:00,
2013-11-13 10:34:00,34.3,18.5,30.52,West,271,3.0,5.0,52,0.00,,,0.00,Wunderground v.1.15,2013-11-13 15:34:00,
2013-11-13 10:39:00,34.1,17.4,30.51,NE,53,3.0,10.0,50,0.00,,,0.00,Wunderground v.1.15,2013-11-13 15:39:00,
2013-11-13 10:44:00,34.8,18.0,30.51,ENE,76,1.0,4.0,50,0.00,,,0.00,Wunderground v.1.15,2013-11-13 15:44:00,
2013-11-13 10:49:00,35.4,17.6,30.51,North,355,4.0,6.0,48,0.00,,,0.00,Wunderground v.1.15,2013-11-13 15:49:00,
2013-11-13 10:54:00,35.3,17.5,30.52,West,269,3.0,5.0,48,0.00,,,0.00,Wunderground v.1.15,2013-11-13 15:54:00,
2013-11-13 10:59:00,34.7,17.5,30.51,WNW,299,1.0,5.0,49,0.00,,,0.00,Wunderground v.1.15,2013-11-13 15:59:00,
2013-11-13 11:04:00,34.6,17.4,30.52,North,5,7.0,10.0,49,0.00,,,0.00,Wunderground v.1.15,2013-11-13 16:04:00,
2013-11-13 11:09:00,34.6,17.4,30.51,North,350,2.0,10.0,49,0.00,,,0.00,Wunderground v.1.15,2013-11-13 16:09:00,
2013-11-13 11:14:00,34.8,17.1,30.51,NNW,347,2.0,7.0,48,0.00,,,0.00,Wunderground v.1.15,2013-11-13 16:14:00,
2013-11-13 11:19:00,34.5,17.3,30.51,North,10,3.0,7.0,49,0.00,,,0.00,Wunderground v.1.15,2013-11-13 16:19:00,
2013-11-13 11:24:00,34.8,17.1,30.51,NNW,346,3.0,4.0,48,0.00,,,0.00,Wunderground v.1.15,2013-11-13 16:24:00,
2013-11-13 11:29:00,35.5,17.2,30.51,NNE,30,1.0,6.0,47,0.00,,,0.00,Wunderground v.1.15,2013-11-13 16:29:00,
2013-11-13 11:34:00,35.3,17.1,30.50,North,351,2.0,6.0,47,0.00,,,0.00,Wunderground v.1.15,2013-11-13 16:34:00,
2013-11-13 11:39:00,35.7,17.9,30.50,North,355,3.0,6.0,48,0.00,,,0.00,Wunderground v.1.15,2013-11-13 16:39:00,
2013-11-13 11:44:00,37.0,17.6,30.50,WSW,245,2.0,5.0,45,0.00,,,0.00,Wunderground v.1.15,2013-11-13 16:44:00,
2013-11-13 11:49:00,36.6,17.2,30.49,ENE,78,2.0,10.0,45,0.00,,,0.00,Wunderground v.1.15,2013-11-13 16:49:00,
2013-11-13 11:54:00,36.9,18.0,30.50,ENE,64,3.0,7.0,46,0.00,,,0.00,Wunderground v.1.15,2013-11-13 16:54:00,
2013-11-13 11:59:00,36.8,17.9,30.49,SW,219,1.0,7.0,46,0.00,,,0.00,Wunderground v.1.15,2013-11-13 16:59:00,
2013-11-13 12:04:00,36.8,17.4,30.49,NNW,348,1.0,7.0,45,0.00,,,0.00,Wunderground v.1.15,2013-11-13 17:04:00,
2013-11-13 12:09:00,37.1,17.7,30.49,NE,39,3.0,7.0,45,0.00,,,0.00,Wunderground v.1.15,2013-11-13 17:09:00,
2013-11-13 12:14:00,37.3,17.9,30.48,South,188,3.0,6.0,45,0.00,,,0.00,Wunderground v.1.15,2013-11-13 17:14:00,
2013-11-13 12:19:00,36.6,17.7,30.48,South,189,9.0,9.0,46,0.00,,,0.00,Wunderground v.1.15,2013-11-13 17:19:00,
2013-11-13 12:24:00,37.7,18.8,30.48,NW,319,0.0,5.0,46,0.00,,,0.00,Wunderground v.1.15,2013-11-13 17:24:00,
2013-11-13 12:29:00,37.6,17.6,30.47,North,5,3.0,6.0,44,0.00,,,0.00,Wunderground v.1.15,2013-11-13 17:29:00,
2013-11-13 12:34:00,37.4,17.4,30.47,North,355,1.0,5.0,44,0.00,,,0.00,Wunderground v.1.15,2013-11-13 17:34:00,
2013-11-13 12:39:00,38.8,18.7,30.47,ENE,58,2.0,5.0,44,0.00,,,0.00,Wunderground v.1.15,2013-11-13 17:39:00,
2013-11-13 12:44:00,38.4,17.8,30.46,SW,234,4.0,8.0,43,0.00,,,0.00,Wunderground v.1.15,2013-11-13 17:44:00,
2013-11-13 12:49:00,37.7,17.7,30.46,NE,51,3.0,10.0,44,0.00,,,0.00,Wunderground v.1.15,2013-11-13 17:49:00,
2013-11-13 12:54:00,38.6,17.5,30.47,SW,215,8.0,9.0,42,0.00,,,0.00,Wunderground v.1.15,2013-11-13 17:54:00,
2013-11-13 13:00:00,37.8,17.8,30.47,NNW,333,1.0,3.0,44,0.00,,,0.00,Wunderground v.1.15,2013-11-13 18:00:00,
2013-11-13 13:05:00,39.7,19.0,30.46,SE,133,1.0,3.0,43,0.00,,,0.00,Wunderground v.1.15,2013-11-13 18:05:00,
2013-11-13 13:10:00,38.7,18.1,30.47,WNW,294,3.0,4.0,43,0.00,,,0.00,Wunderground v.1.15,2013-11-13 18:10:00,
2013-11-13 13:15:00,38.3,17.7,30.46,NW,317,3.0,8.0,43,0.00,,,0.00,Wunderground v.1.15,2013-11-13 18:15:00,
2013-11-13 13:20:00,38.4,17.8,30.46,ESE,108,2.0,8.0,43,0.00,,,0.00,Wunderground v.1.15,2013-11-13 18:20:00,
2013-11-13 13:25:00,38.5,17.9,30.46,SSE,158,2.0,8.0,43,0.00,,,0.00,Wunderground v.1.15,2013-11-13 18:25:00,
2013-11-13 13:30:00,38.5,17.9,30.46,SE,124,3.0,6.0,43,0.00,,,0.00,Wunderground v.1.15,2013-11-13 18:30:00,
2013-11-13 13:35:00,39.1,18.5,30.46,NW,319,2.0,7.0,43,0.00,,,0.00,Wunderground v.1.15,2013-11-13 18:35:00,
2013-11-13 13:40:00,38.9,18.3,30.46,SSW,213,3.0,6.0,43,0.00,,,0.00,Wunderground v.1.15,2013-11-13 18:40:00,
2013-11-13 13:45:00,39.1,17.9,30.46,East,79,1.0,7.0,42,0.00,,,0.00,Wunderground v.1.15,2013-11-13 18:45:00,
2013-11-13 13:50:00,38.7,17.5,30.46,West,262,3.0,8.0,42,0.00,,,0.00,Wunderground v.1.15,2013-11-13 18:50:00,
2013-11-13 13:55:00,38.7,17.5,30.45,NNE,25,3.0,9.0,42,0.00,,,0.00,Wunderground v.1.15,2013-11-13 18:55:00,
2013-11-13 14:01:00,38.8,17.6,30.45,ENE,73,3.0,7.0,42,0.00,,,0.00,Wunderground v.1.15,2013-11-13 19:01:00,
2013-11-13 14:06:00,38.9,17.2,30.45,ESE,115,7.0,8.0,41,0.00,,,0.00,Wunderground v.1.15,2013-11-13 19:06:00,
2013-11-13 14:11:00,38.7,17.5,30.45,NW,321,1.0,6.0,42,0.00,,,0.00,Wunderground v.1.15,2013-11-13 19:11:00,
2013-11-13 14:16:00,39.3,17.5,30.45,NE,37,4.0,6.0,41,0.00,,,0.00,Wunderground v.1.15,2013-11-13 19:16:00,
2013-11-13 14:22:00,39.6,17.2,30.45,East,80,3.0,5.0,40,0.00,,,0.00,Wunderground v.1.15,2013-11-13 19:22:00,
2013-11-13 14:27:00,39.7,17.9,30.45,NNE,13,3.0,5.0,41,0.00,,,0.00,Wunderground v.1.15,2013-11-13 19:27:00,
2013-11-13 14:32:00,39.9,16.9,30.45,WNW,284,3.0,4.0,39,0.00,,,0.00,Wunderground v.1.15,2013-11-13 19:32:00,
2013-11-13 14:37:00,40.1,17.7,30.45,North,351,1.0,7.0,40,0.00,,,0.00,Wunderground v.1.15,2013-11-13 19:37:00,
2013-11-13 14:42:00,39.6,17.8,30.45,SSW,206,5.0,6.0,41,0.00,,,0.00,Wunderground v.1.15,2013-11-13 19:42:00,
2013-11-13 14:47:00,39.1,17.4,30.45,West,275,2.0,6.0,41,0.00,,,0.00,Wunderground v.1.15,2013-11-13 19:47:00,
2013-11-13 14:52:00,38.8,17.6,30.45,West,273,3.0,7.0,42,0.00,,,0.00,Wunderground v.1.15,2013-11-13 19:52:00,
2013-11-13 14:57:00,39.0,17.8,30.45,NW,321,2.0,7.0,42,0.00,,,0.00,Wunderground v.1.15,2013-11-13 19:57:00,
2013-11-13 15:02:00,39.1,17.4,30.45,ESE,120,2.0,6.0,41,0.00,,,0.00,Wunderground v.1.15,2013-11-13 20:02:00,
2013-11-13 15:07:00,38.8,17.6,30.45,NE,54,3.0,7.0,42,0.00,,,0.00,Wunderground v.1.15,2013-11-13 20:07:00,
2013-11-13 15:12:00,38.6,17.5,30.45,NNW,347,4.0,7.0,42,0.00,,,0.00,Wunderground v.1.15,2013-11-13 20:12:00,
2013-11-13 15:17:00,38.6,17.5,30.45,NNW,338,2.0,11.0,42,0.00,,,0.00,Wunderground v.1.15,2013-11-13 20:17:00,
2013-11-13 15:22:00,38.6,16.9,30.45,NNW,340,4.0,8.0,41,0.00,,,0.00,Wunderground v.1.15,2013-11-13 20:22:00,
2013-11-13 15:27:00,38.5,17.4,30.45,NE,55,1.0,8.0,42,0.00,,,0.00,Wunderground v.1.15,2013-11-13 20:27:00,
2013-11-13 15:32:00,38.4,17.3,30.45,SW,221,3.0,7.0,42,0.00,,,0.00,Wunderground v.1.15,2013-11-13 20:32:00,
2013-11-13 15:38:00,38.1,17.5,30.45,South,183,3.0,9.0,43,0.00,,,0.00,Wunderground v.1.15,2013-11-13 20:38:00,
2013-11-13 15:43:00,38.3,17.7,30.45,ENE,74,1.0,3.0,43,0.00,,,0.00,Wunderground v.1.15,2013-11-13 20:43:00,
2013-11-13 15:48:00,38.0,16.9,30.45,North,349,2.0,5.0,42,0.00,,,0.00,Wunderground v.1.15,2013-11-13 20:48:00,
2013-11-13 15:53:00,37.9,17.4,30.45,East,88,3.0,4.0,43,0.00,,,0.00,Wunderground v.1.15,2013-11-13 20:53:00,
2013-11-13 15:58:00,37.9,17.9,30.45,NNE,19,2.0,5.0,44,0.00,,,0.00,Wunderground v.1.15,2013-11-13 20:58:00,
2013-11-13 16:04:00,37.7,17.7,30.45,South,169,2.0,7.0,44,0.00,,,0.00,Wunderground v.1.15,2013-11-13 21:04:00,
2013-11-13 16:09:00,37.6,18.2,30.45,WSW,257,2.0,7.0,45,0.00,,,0.00,Wunderground v.1.15,2013-11-13 21:09:00,
2013-11-13 16:14:00,37.2,18.3,30.45,NE,44,2.0,5.0,46,0.00,,,0.00,Wunderground v.1.15,2013-11-13 21:14:00,
2013-11-13 16:19:00,36.8,18.4,30.45,SSE,148,9.0,9.0,47,0.00,,,0.00,Wunderground v.1.15,2013-11-13 21:19:00,
2013-11-13 16:24:00,36.5,18.2,30.45,NE,42,3.0,6.0,47,0.00,,,0.00,Wunderground v.1.15,2013-11-13 21:24:00,
2013-11-13 16:29:00,36.1,18.3,30.45,West,260,2.0,7.0,48,0.00,,,0.00,Wunderground v.1.15,2013-11-13 21:29:00,
2013-11-13 16:34:00,35.9,18.6,30.45,SSW,201,2.0,6.0,49,0.00,,,0.00,Wunderground v.1.15,2013-11-13 21:34:00,
2013-11-13 16:39:00,35.6,18.3,30.45,NE,44,3.0,6.0,49,0.00,,,0.00,Wunderground v.1.15,2013-11-13 21:39:00,
2013-11-13 16:44:00,35.4,18.6,30.45,SW,215,0.0,4.0,50,0.00,,,0.00,Wunderground v.1.15,2013-11-13 21:44:00,
2013-11-13 16:49:00,35.2,18.4,30.45,NW,318,1.0,4.0,50,0.00,,,0.00,Wunderground v.1.15,2013-11-13 21:49:00,
2013-11-13 16:54:00,35.0,18.2,30.46,ESE,103,0.0,6.0,50,0.00,,,0.00,Wunderground v.1.15,2013-11-13 21:54:00,
2013-11-13 16:59:00,34.7,18.4,30.46,South,169,5.0,8.0,51,0.00,,,0.00,Wunderground v.1.15,2013-11-13 21:59:00,
2013-11-13 17:04:00,34.5,18.2,30.46,ENE,66,1.0,7.0,51,0.00,,,0.00,Wunderground v.1.15,2013-11-13 22:04:00,
2013-11-13 17:09:00,34.3,18.5,30.46,ENE,68,2.0,7.0,52,0.00,,,0.00,Wunderground v.1.15,2013-11-13 22:09:00,
2013-11-13 17:14:00,34.0,18.2,30.47,NE,55,1.0,3.0,52,0.00,,,0.00,Wunderground v.1.15,2013-11-13 22:14:00,
2013-11-13 17:19:00,33.8,18.5,30.47,SSE,150,2.0,4.0,53,0.00,,,0.00,Wunderground v.1.15,2013-11-13 22:19:00,
2013-11-13 17:24:00,33.6,18.3,30.46,NNE,31,0.0,4.0,53,0.00,,,0.00,Wunderground v.1.15,2013-11-13 22:24:00,
2013-11-13 17:29:00,33.5,18.2,30.46,South,188,1.0,4.0,53,0.00,,,0.00,Wunderground v.1.15,2013-11-13 22:29:00,
2013-11-13 17:34:00,33.3,18.4,30.47,SSE,168,2.0,4.0,54,0.00,,,0.00,Wunderground v.1.15,2013-11-13 22:34:00,
2013-11-13 17:39:00,33.2,18.3,30.47,West,259,1.0,5.0,54,0.00,,,0.00,Wunderground v.1.15,2013-11-13 22:39:00,
2013-11-13 17:44:00,33.1,18.2,30.46,ENE,73,1.0,5.0,54,0.00,,,0.00,Wunderground v.1.15,2013-11-13 22:44:00,
2013-11-13 17:49:00,32.8,18.4,30.47,East,86,2.0,5.0,55,0.00,,,0.00,Wunderground v.1.15,2013-11-13 22:49:00,
2013-11-13 17:54:00,32.6,18.2,30.47,East,84,1.0,3.0,55,0.00,,,0.00,Wunderground v.1.15,2013-11-13 22:54:00,
2013-11-13 17:59:00,32.5,18.5,30.47,ESE,118,0.0,3.0,56,0.00,,,0.00,Wunderground v.1.15,2013-11-13 22:59:00,
2013-11-13 18:04:00,31.9,19.2,30.47,ESE,118,1.0,2.0,59,0.00,,,0.00,Wunderground v.1.15,2013-11-13 23:04:00,
2013-11-13 18:09:00,31.5,19.2,30.47,ESE,118,0.0,2.0,60,0.00,,,0.00,Wunderground v.1.15,2013-11-13 23:09:00,
2013-11-13 18:14:00,31.0,19.1,30.47,ESE,117,0.0,2.0,61,0.00,,,0.00,Wunderground v.1.15,2013-11-13 23:14:00,
2013-11-13 18:19:00,31.2,18.5,30.47,NE,49,2.0,3.0,59,0.00,,,0.00,Wunderground v.1.15,2013-11-13 23:19:00,
2013-11-13 18:24:00,31.4,18.7,30.47,NE,36,0.0,2.0,59,0.00,,,0.00,Wunderground v.1.15,2013-11-13 23:24:00,
2013-11-13 18:29:00,31.4,18.7,30.47,NNW,347,1.0,4.0,59,0.00,,,0.00,Wunderground v.1.15,2013-11-13 23:29:00,
2013-11-13 18:34:00,31.2,19.3,30.47,West,271,1.0,3.0,61,0.00,,,0.00,Wunderground v.1.15,2013-11-13 23:34:00,
2013-11-13 18:39:00,31.3,19.0,30.47,WSW,249,1.0,3.0,60,0.00,,,0.00,Wunderground v.1.15,2013-11-13 23:39:00,
2013-11-13 18:45:00,30.9,19.0,30.47,WSW,240,0.0,1.0,61,0.00,,,0.00,Wunderground v.1.15,2013-11-13 23:45:00,
2013-11-13 18:50:00,30.5,19.4,30.47,WSW,240,1.0,1.0,63,0.00,,,0.00,Wunderground v.1.15,2013-11-13 23:50:00,
2013-11-13 18:55:00,30.4,18.9,30.47,SSE,168,0.0,3.0,62,0.00,,,0.00,Wunderground v.1.15,2013-11-13 23:55:00,
2013-11-13 19:00:00,29.8,19.1,30.47,SE,140,0.0,1.0,64,0.00,,,0.00,Wunderground v.1.15,2013-11-14 00:00:00,
2013-11-13 19:05:00,29.5,18.8,30.47,SE,140,0.0,2.0,64,0.00,,,0.00,Wunderground v.1.15,2013-11-14 00:05:00,
2013-11-13 19:10:00,29.5,18.4,30.47,SE,144,1.0,1.0,63,0.00,,,0.00,Wunderground v.1.15,2013-11-14 00:10:00,
2013-11-13 19:15:00,29.4,19.1,30.46,SSE,148,0.0,2.0,65,0.00,,,0.00,Wunderground v.1.15,2013-11-14 00:15:00,
2013-11-13 19:20:00,29.6,19.3,30.46,SSE,152,1.0,1.0,65,0.00,,,0.00,Wunderground v.1.15,2013-11-14 00:20:00,
2013-11-13 19:25:00,29.3,19.0,30.46,SSE,152,1.0,1.0,65,0.00,,,0.00,Wunderground v.1.15,2013-11-14 00:25:00,
2013-11-13 19:30:00,29.1,18.8,30.46,SSE,152,0.0,1.0,65,0.00,,,0.00,Wunderground v.1.15,2013-11-14 00:30:00,
2013-11-13 19:35:00,28.8,19.2,30.46,SSE,152,0.0,1.0,67,0.00,,,0.00,Wunderground v.1.15,2013-11-14 00:35:00,
2013-11-13 19:40:00,28.3,18.7,30.46,SSE,152,0.0,1.0,67,0.00,,,0.00,Wunderground v.1.15,2013-11-14 00:40:00,
2013-11-13 19:45:00,28.1,19.2,30.46,SSE,152,0.0,1.0,69,0.00,,,0.00,Wunderground v.1.15,2013-11-14 00:45:00,
2013-11-13 19:50:00,27.8,18.9,30.46,SSE,152,0.0,1.0,69,0.00,,,0.00,Wunderground v.1.15,2013-11-14 00:50:00,
2013-11-13 19:55:00,27.5,19.0,30.45,SSE,152,0.0,1.0,70,0.00,,,0.00,Wunderground v.1.15,2013-11-14 00:55:00,
2013-11-13 20:00:00,27.2,18.4,30.45,SSE,152,0.0,0.0,69,0.00,,,0.00,Wunderground v.1.15,2013-11-14 01:00:00,
2013-11-13 20:05:00,27.1,18.9,30.46,SSE,152,0.0,1.0,71,0.00,,,0.00,Wunderground v.1.15,2013-11-14 01:05:00,
2013-11-13 20:10:00,26.9,19.1,30.46,SSE,152,0.0,0.0,72,0.00,,,0.00,Wunderground v.1.15,2013-11-14 01:10:00,
2013-11-13 20:15:00,26.8,19.0,30.46,SSE,152,0.0,1.0,72,0.00,,,0.00,Wunderground v.1.15,2013-11-14 01:15:00,
2013-11-13 20:20:00,26.7,18.9,30.46,SSE,152,0.0,0.0,72,0.00,,,0.00,Wunderground v.1.15,2013-11-14 01:20:00,
2013-11-13 20:25:00,26.6,18.8,30.46,SSE,152,0.0,1.0,72,0.00,,,0.00,Wunderground v.1.15,2013-11-14 01:25:00,
2013-11-13 20:37:00,26.4,18.9,30.45,SSE,152,0.0,1.0,73,0.00,,,0.00,Wunderground v.1.15,2013-11-14 01:37:00,
2013-11-13 20:46:00,26.2,18.7,30.45,SSE,152,0.0,0.0,73,0.00,,,0.00,Wunderground v.1.15,2013-11-14 01:46:00,
2013-11-13 20:56:00,26.0,18.8,30.45,SSE,152,0.0,1.0,74,0.00,,,0.00,Wunderground v.1.15,2013-11-14 01:56:00,
2013-11-13 21:09:00,25.8,19.0,30.46,SSE,152,0.0,1.0,75,0.00,,,0.00,Wunderground v.1.15,2013-11-14 02:09:00,
2013-11-13 21:25:00,25.4,18.9,30.46,SSE,152,0.0,1.0,76,0.00,,,0.00,Wunderground v.1.15,2013-11-14 02:25:00,
2013-11-13 21:30:00,25.4,18.9,30.45,SSE,152,0.0,1.0,76,0.00,,,0.00,Wunderground v.1.15,2013-11-14 02:30:00,
2013-11-13 21:35:00,25.4,19.2,30.45,SSE,152,1.0,1.0,77,0.00,,,0.00,Wunderground v.1.15,2013-11-14 02:35:00,
2013-11-13 21:40:00,25.3,19.1,30.45,SSE,152,0.0,1.0,77,0.00,,,0.00,Wunderground v.1.15,2013-11-14 02:40:00,
2013-11-13 21:45:00,25.2,19.0,30.45,SSE,152,0.0,1.0,77,0.00,,,0.00,Wunderground v.1.15,2013-11-14 02:45:00,
2013-11-13 21:50:00,25.0,18.8,30.45,SSE,152,0.0,1.0,77,0.00,,,0.00,Wunderground v.1.15,2013-11-14 02:50:00,
2013-11-13 21:55:00,24.9,19.0,30.45,SSE,152,0.0,1.0,78,0.00,,,0.00,Wunderground v.1.15,2013-11-14 02:55:00,
2013-11-13 22:01:00,24.9,19.6,30.44,SSE,152,0.0,0.0,80,0.00,,,0.00,Wunderground v.1.15,2013-11-14 03:01:00,
2013-11-13 22:06:00,24.8,19.2,30.44,SSE,152,0.0,1.0,79,0.00,,,0.00,Wunderground v.1.15,2013-11-14 03:06:00,
2013-11-13 22:11:00,24.8,19.5,30.44,SSE,152,0.0,1.0,80,0.00,,,0.00,Wunderground v.1.15,2013-11-14 03:11:00,
2013-11-13 22:16:00,24.7,19.4,30.44,SSE,152,0.0,2.0,80,0.00,,,0.00,Wunderground v.1.15,2013-11-14 03:16:00,
2013-11-13 22:21:00,24.7,19.4,30.43,SSE,152,1.0,1.0,80,0.00,,,0.00,Wunderground v.1.15,2013-11-14 03:21:00,
2013-11-13 22:26:00,24.6,19.6,30.43,SSE,152,1.0,1.0,81,0.00,,,0.00,Wunderground v.1.15,2013-11-14 03:26:00,
2013-11-13 22:31:00,24.7,19.4,30.43,SSE,152,0.0,0.0,80,0.00,,,0.00,Wunderground v.1.15,2013-11-14 03:31:00,
2013-11-13 22:36:00,24.5,19.5,30.43,SSE,152,0.0,1.0,81,0.00,,,0.00,Wunderground v.1.15,2013-11-14 03:36:00,
2013-11-13 22:41:00,24.4,19.4,30.42,SSE,152,1.0,1.0,81,0.00,,,0.00,Wunderground v.1.15,2013-11-14 03:41:00,
2013-11-13 22:46:00,24.4,19.1,30.42,SSW,193,2.0,3.0,80,0.00,,,0.00,Wunderground v.1.15,2013-11-14 03:46:00,
2013-11-13 22:51:00,24.8,18.9,30.42,WSW,244,2.0,3.0,78,0.00,,,0.00,Wunderground v.1.15,2013-11-14 03:51:00,
2013-11-13 22:56:00,24.8,18.9,30.42,SW,231,3.0,3.0,78,0.00,,,0.00,Wunderground v.1.15,2013-11-14 03:56:00,
2013-11-13 23:01:00,24.8,18.6,30.42,WSW,238,2.0,3.0,77,0.00,,,0.00,Wunderground v.1.15,2013-11-14 04:01:00,
2013-11-13 23:06:00,25.0,18.5,30.41,WSW,257,1.0,3.0,76,0.00,,,0.00,Wunderground v.1.15,2013-11-14 04:06:00,
2013-11-13 23:11:00,25.1,18.3,30.41,WSW,257,0.0,2.0,75,0.00,,,0.00,Wunderground v.1.15,2013-11-14 04:11:00,
2013-11-13 23:16:00,25.1,18.3,30.41,WSW,256,1.0,2.0,75,0.00,,,0.00,Wunderground v.1.15,2013-11-14 04:16:00,
2013-11-13 23:21:00,24.9,18.7,30.41,SW,232,1.0,2.0,77,0.00,,,0.00,Wunderground v.1.15,2013-11-14 04:21:00,
2013-11-13 23:26:00,24.6,19.0,30.40,SW,232,2.0,2.0,79,0.00,,,0.00,Wunderground v.1.15,2013-11-14 04:26:00,
2013-11-13 23:31:00,24.6,19.0,30.40,SW,231,2.0,3.0,79,0.00,,,0.00,Wunderground v.1.15,2013-11-14 04:31:00,
2013-11-13 23:36:00,24.7,18.2,30.40,WSW,250,1.0,3.0,76,0.00,,,0.00,Wunderground v.1.15,2013-11-14 04:36:00,
2013-11-13 23:41:00,24.7,18.2,30.40,WSW,252,2.0,3.0,76,0.00,,,0.00,Wunderground v.1.15,2013-11-14 04:41:00,
2013-11-13 23:46:00,24.7,18.2,30.40,WSW,237,2.0,3.0,76,0.00,,,0.00,Wunderground v.1.15,2013-11-14 04:46:00,
2013-11-13 23:51:00,24.6,18.1,30.40,SW,229,2.0,3.0,76,0.00,,,0.00,Wunderground v.1.15,2013-11-14 04:51:00,
2013-11-13 23:57:00,24.5,18.0,30.40,SW,216,0.0,3.0,76,0.00,,,0.00,Wunderground v.1.15,2013-11-14 04:57:00,